createdAt,value
2023-02-15T00:01:43.284Z,21.88
2023-02-15T00:04:10.868Z,21.38
2023-02-15T00:06:38.025Z,21.73
2023-02-15T00:09:05.594Z,22.83
2023-02-15T00:11:42.023Z,19.15
2023-02-15T00:14:10.266Z,21.13
2023-02-15T00:16:38.020Z,20.50
2023-02-15T00:19:05.656Z,21.23
2023-02-15T00:21:33.489Z,17.60
2023-02-15T00:24:01.553Z,19.92
2023-02-15T00:26:29.358Z,18.98
2023-02-15T00:28:57.050Z,18.73
2023-02-15T00:31:24.368Z,19.33
2023-02-15T00:33:51.564Z,21.05
2023-02-15T00:36:18.753Z,17.90
2023-02-15T00:38:45.944Z,20.10
2023-02-15T00:41:13.244Z,20.00
2023-02-15T00:43:40.344Z,17.73
2023-02-15T00:46:07.540Z,19.83
2023-02-15T00:48:34.677Z,17.48
2023-02-15T00:51:02.614Z,17.42
2023-02-15T00:53:30.604Z,17.27
2023-02-15T00:55:58.481Z,18.20
2023-02-15T00:58:26.014Z,18.45
2023-02-15T01:00:53.366Z,17.40
2023-02-15T01:03:21.485Z,20.40
2023-02-15T01:05:49.208Z,18.95
2023-02-15T01:08:16.743Z,19.23
2023-02-15T01:10:45.055Z,18.58
2023-02-15T01:13:12.239Z,20.50
2023-02-15T01:15:39.401Z,18.88
2023-02-15T01:18:06.651Z,21.08
2023-02-15T01:20:36.424Z,17.45
2023-02-15T01:23:04.121Z,17.85
2023-02-15T01:25:31.223Z,14.43
2023-02-15T01:27:58.402Z,15.95
2023-02-15T01:30:25.563Z,16.83
2023-02-15T01:32:53.035Z,16.70
2023-02-15T01:35:20.143Z,17.05
2023-02-15T01:37:47.291Z,16.73
2023-02-15T01:40:15.975Z,19.60
2023-02-15T01:42:43.424Z,16.65
2023-02-15T01:45:21.741Z,17.98
2023-02-15T01:47:48.803Z,17.80
2023-02-15T01:50:18.669Z,21.02
2023-02-15T01:52:57.789Z,19.20
2023-02-15T01:55:26.159Z,18.08
2023-02-15T01:57:53.532Z,19.05
2023-02-15T02:00:22.569Z,19.65
2023-02-15T02:03:17.453Z,18.00
2023-02-15T02:05:44.630Z,17.23
2023-02-15T02:08:11.829Z,19.20
2023-02-15T02:10:38.963Z,16.95
2023-02-15T02:13:07.661Z,16.38
2023-02-15T02:15:58.199Z,19.08
2023-02-15T02:18:34.541Z,16.50
2023-02-15T02:21:04.568Z,17.15
2023-02-15T02:23:50.176Z,17.52
2023-02-15T02:26:17.376Z,17.40
2023-02-15T02:28:50.582Z,17.27
2023-02-15T02:31:33.489Z,20.67
2023-02-15T02:34:09.604Z,18.30
2023-02-15T02:37:09.331Z,18.58
2023-02-15T02:40:04.809Z,20.88
2023-02-15T02:42:42.894Z,17.80
2023-02-15T02:45:11.824Z,16.25
2023-02-15T02:47:45.631Z,15.02
2023-02-15T02:50:17.298Z,21.40
2023-02-15T02:52:45.586Z,17.13
2023-02-15T02:55:25.013Z,15.93
2023-02-15T02:57:54.986Z,18.27
2023-02-15T03:00:23.734Z,18.02
2023-02-15T03:02:52.814Z,19.75
2023-02-15T03:05:23.332Z,20.33
2023-02-15T03:07:52.185Z,20.10
2023-02-15T03:10:20.969Z,19.88
2023-02-15T03:12:48.196Z,33.10
2023-02-15T03:15:20.970Z,34.35
2023-02-15T03:17:50.626Z,28.73
2023-02-15T03:20:20.813Z,25.15
2023-02-15T03:22:50.782Z,28.85
2023-02-15T03:25:22.774Z,26.77
2023-02-15T03:27:51.994Z,24.73
2023-02-15T03:30:20.761Z,25.90
2023-02-15T03:32:49.188Z,26.25
2023-02-15T03:35:16.407Z,28.40
2023-02-15T03:37:46.529Z,31.42
2023-02-15T03:40:57.268Z,40.17
2023-02-15T03:43:42.949Z,32.25
2023-02-15T03:46:26.586Z,29.08
2023-02-15T03:48:55.384Z,31.00
2023-02-15T03:51:38.856Z,46.97
2023-02-15T03:54:10.322Z,67.38
2023-02-15T03:56:38.836Z,39.30
2023-02-15T03:59:25.010Z,38.63
2023-02-15T04:02:14.824Z,32.05
2023-02-15T04:04:45.161Z,25.10
2023-02-15T04:07:12.911Z,28.40
2023-02-15T04:09:59.041Z,22.67
2023-02-15T04:12:26.183Z,20.98
2023-02-15T04:15:11.997Z,20.40
2023-02-15T04:17:39.606Z,19.95
2023-02-15T04:20:25.943Z,19.90
2023-02-15T04:23:11.809Z,21.85
2023-02-15T04:25:38.927Z,17.50
2023-02-15T04:28:06.726Z,22.25
2023-02-15T04:30:33.886Z,18.98
2023-02-15T04:33:00.966Z,22.15
2023-02-15T04:35:28.234Z,23.23
2023-02-15T04:37:56.838Z,21.88
2023-02-15T04:40:23.980Z,22.10
2023-02-15T04:42:51.121Z,27.50
2023-02-15T04:45:18.699Z,24.83
2023-02-15T04:47:46.414Z,27.25
2023-02-15T04:50:13.589Z,24.70
2023-02-15T04:52:40.773Z,24.65
2023-02-15T04:55:08.237Z,24.85
2023-02-15T04:57:35.444Z,27.70
2023-02-15T05:00:02.606Z,24.00
2023-02-15T05:02:29.722Z,25.95
2023-02-15T05:04:56.926Z,28.55
2023-02-15T05:07:24.175Z,26.77
2023-02-15T05:09:51.322Z,26.25
2023-02-15T05:12:18.464Z,24.33
2023-02-15T05:14:45.563Z,25.98
2023-02-15T05:17:12.681Z,27.30
2023-02-15T05:19:39.787Z,23.70
2023-02-15T05:22:06.909Z,22.83
2023-02-15T05:24:52.675Z,24.88
2023-02-15T05:27:38.650Z,25.77
2023-02-15T05:30:06.340Z,24.05
2023-02-15T05:32:33.874Z,23.80
2023-02-15T05:35:01.034Z,24.63
2023-02-15T05:37:28.170Z,29.65
2023-02-15T05:39:55.303Z,31.05
2023-02-15T05:42:22.421Z,29.02
2023-02-15T05:44:49.514Z,27.50
2023-02-15T05:47:16.651Z,29.05
2023-02-15T05:49:43.734Z,27.52
2023-02-15T05:52:10.883Z,30.08
2023-02-15T05:54:37.957Z,26.17
2023-02-15T05:57:05.186Z,31.10
2023-02-15T05:59:32.286Z,34.75
2023-02-15T06:01:59.506Z,30.35
2023-02-15T06:04:26.695Z,34.33
2023-02-15T06:06:53.790Z,27.08
2023-02-15T06:09:20.990Z,29.33
2023-02-15T06:11:48.190Z,34.58
2023-02-15T06:14:15.303Z,28.30
2023-02-15T06:16:42.401Z,28.90
2023-02-15T06:19:09.565Z,53.70
2023-02-15T06:21:36.650Z,34.20
2023-02-15T06:24:03.864Z,34.88
2023-02-15T06:26:30.951Z,30.63
2023-02-15T06:28:58.028Z,30.17
2023-02-15T06:31:25.459Z,51.78
2023-02-15T06:33:52.617Z,60.05
2023-02-15T06:36:19.724Z,53.30
2023-02-15T06:38:46.941Z,60.72
2023-02-15T06:41:14.069Z,48.28
2023-02-15T06:43:41.255Z,46.40
2023-02-15T06:46:08.427Z,57.17
2023-02-15T06:48:35.589Z,57.95
2023-02-15T06:51:02.696Z,63.88
2023-02-15T06:53:30.073Z,55.10
2023-02-15T06:56:07.668Z,64.35
2023-02-15T06:58:35.171Z,49.97
2023-02-15T07:01:02.445Z,36.50
2023-02-15T07:03:29.526Z,33.10
2023-02-15T07:05:57.296Z,31.85
2023-02-15T07:08:24.795Z,31.30
2023-02-15T07:10:52.885Z,30.20
2023-02-15T07:13:20.409Z,31.10
2023-02-15T07:15:48.141Z,28.98
2023-02-15T07:18:15.602Z,27.35
2023-02-15T07:20:42.748Z,29.13
2023-02-15T07:23:10.201Z,23.60
2023-02-15T07:25:37.367Z,24.38
2023-02-15T07:28:05.651Z,29.25
2023-02-15T07:30:32.885Z,26.45
2023-02-15T07:33:19.338Z,23.00
2023-02-15T07:35:50.125Z,25.48
2023-02-15T07:38:17.387Z,24.88
2023-02-15T07:40:44.980Z,27.88
2023-02-15T07:43:12.228Z,30.35
2023-02-15T07:45:39.798Z,29.98
2023-02-15T07:48:07.320Z,26.70
2023-02-15T07:50:34.411Z,25.42
2023-02-15T07:53:03.454Z,25.13
2023-02-15T07:55:30.615Z,22.17
2023-02-15T07:57:57.724Z,20.13
2023-02-15T08:00:25.882Z,24.33
2023-02-15T08:03:13.274Z,23.30
2023-02-15T08:05:41.782Z,23.63
2023-02-15T08:08:09.617Z,24.17
2023-02-15T08:10:55.718Z,30.38
2023-02-15T08:13:22.858Z,36.65
2023-02-15T08:15:53.094Z,42.55
2023-02-15T08:18:20.163Z,40.25
2023-02-15T08:20:51.495Z,29.85
2023-02-15T08:23:18.644Z,25.33
2023-02-15T08:25:45.772Z,31.50
2023-02-15T08:28:12.953Z,25.40
2023-02-15T08:30:40.081Z,32.13
2023-02-15T08:33:07.190Z,27.45
2023-02-15T08:35:35.352Z,25.35
2023-02-15T08:38:02.489Z,23.25
2023-02-15T08:40:29.652Z,23.40
2023-02-15T08:42:56.767Z,24.83
2023-02-15T08:45:26.322Z,25.08
2023-02-15T08:47:53.526Z,22.50
2023-02-15T08:50:20.681Z,19.65
2023-02-15T08:52:47.784Z,21.83
2023-02-15T08:55:14.991Z,24.75
2023-02-15T08:57:45.823Z,24.15
2023-02-15T09:00:13.204Z,28.08
2023-02-15T09:02:40.453Z,22.63
2023-02-15T09:05:07.803Z,21.00
2023-02-15T09:07:34.913Z,17.77
2023-02-15T09:10:02.029Z,18.58
2023-02-15T09:12:29.203Z,17.40
2023-02-15T09:14:56.380Z,17.67
2023-02-15T09:17:23.502Z,18.92
2023-02-15T09:19:50.715Z,19.65
2023-02-15T09:22:17.849Z,19.73
2023-02-15T09:24:45.001Z,21.10
2023-02-15T09:27:12.129Z,17.90
2023-02-15T09:29:39.318Z,18.20
2023-02-15T09:32:06.472Z,16.15
2023-02-15T09:34:35.104Z,16.08
2023-02-15T09:37:03.794Z,19.20
2023-02-15T09:39:31.125Z,17.20
2023-02-15T09:42:16.774Z,17.83
2023-02-15T09:45:04.840Z,17.73
2023-02-15T09:47:48.467Z,17.17
2023-02-15T09:50:29.485Z,17.27
2023-02-15T09:53:15.529Z,17.65
2023-02-15T09:56:01.494Z,17.23
2023-02-15T09:58:42.459Z,15.70
2023-02-15T10:01:29.324Z,17.48
2023-02-15T10:04:15.406Z,14.77
2023-02-15T10:06:45.629Z,19.00
2023-02-15T10:09:19.538Z,17.75
2023-02-15T10:11:51.047Z,17.17
2023-02-15T10:14:39.031Z,16.80
2023-02-15T10:17:13.975Z,17.77
2023-02-15T10:19:41.040Z,19.98
2023-02-15T10:22:23.109Z,22.33
2023-02-15T10:24:57.247Z,20.30
2023-02-15T10:27:24.532Z,20.33
2023-02-15T10:30:15.291Z,16.45
2023-02-15T10:32:48.876Z,16.85
2023-02-15T10:35:21.062Z,14.82
2023-02-15T10:37:48.103Z,17.05
2023-02-15T10:40:35.254Z,15.73
2023-02-15T10:43:07.597Z,16.67
2023-02-15T10:45:42.972Z,18.40
2023-02-15T10:48:13.227Z,14.77
2023-02-15T10:50:49.478Z,70.38
2023-02-15T10:53:28.088Z,50.42
2023-02-15T10:56:03.844Z,32.03
2023-02-15T10:58:38.609Z,25.75
2023-02-15T11:01:25.883Z,20.20
2023-02-15T11:03:55.824Z,15.88
2023-02-15T11:06:24.395Z,12.88
2023-02-15T11:08:55.895Z,14.23
2023-02-15T11:11:49.068Z,13.85
2023-02-15T11:16:46.713Z,16.90
2023-02-15T11:19:19.868Z,11.88
2023-02-15T11:21:56.561Z,11.60
2023-02-15T11:24:27.483Z,15.13
2023-02-15T11:27:17.335Z,15.40
2023-02-15T11:30:00.257Z,10.70
2023-02-15T11:35:03.769Z,11.25
2023-02-15T11:37:40.430Z,13.18
2023-02-15T11:40:17.131Z,9.90
2023-02-15T11:42:44.868Z,10.88
2023-02-15T11:45:27.819Z,7.45
2023-02-15T11:50:24.489Z,14.43
2023-02-15T11:52:53.809Z,9.65
2023-02-15T11:55:22.852Z,10.25
2023-02-15T11:58:10.213Z,5.65
2023-02-15T12:00:39.686Z,7.22
2023-02-15T12:03:14.471Z,8.27
2023-02-15T12:05:44.003Z,8.23
2023-02-15T12:08:17.514Z,5.65
2023-02-15T12:10:48.962Z,7.63
2023-02-15T12:13:17.376Z,9.73
2023-02-15T12:15:52.805Z,8.48
2023-02-15T12:18:35.879Z,8.57
2023-02-15T12:21:05.706Z,8.38
2023-02-15T12:23:33.843Z,8.45
2023-02-15T12:26:01.416Z,8.70
2023-02-15T12:28:37.294Z,8.57
2023-02-15T12:31:11.139Z,6.63
2023-02-15T12:33:46.479Z,8.13
2023-02-15T12:36:21.877Z,7.07
2023-02-15T12:39:04.238Z,7.72
2023-02-15T12:41:31.359Z,7.60
2023-02-15T12:44:19.977Z,7.53
2023-02-15T12:47:01.168Z,7.45
2023-02-15T12:49:32.781Z,8.32
2023-02-15T12:52:01.066Z,7.85
2023-02-15T12:54:33.179Z,8.07
2023-02-15T12:57:00.797Z,11.38
2023-02-15T12:59:27.917Z,10.82
2023-02-15T13:01:55.366Z,9.32
2023-02-15T13:04:24.801Z,10.13
2023-02-15T13:06:53.495Z,9.57
2023-02-15T13:09:32.856Z,10.95
2023-02-15T13:12:12.164Z,7.20
2023-02-15T13:14:39.355Z,8.27
2023-02-15T13:17:08.795Z,7.30
2023-02-15T13:19:42.445Z,8.23
2023-02-15T13:22:14.817Z,9.88
2023-02-15T13:24:44.656Z,9.20
2023-02-15T13:27:20.636Z,9.77
2023-02-15T13:29:59.789Z,10.23
2023-02-15T13:32:29.972Z,8.30
2023-02-15T13:34:58.883Z,8.80
2023-02-15T13:37:37.529Z,10.40
2023-02-15T13:40:23.180Z,7.35
2023-02-15T13:43:09.178Z,8.38
2023-02-15T13:45:53.968Z,9.65
2023-02-15T13:48:45.660Z,9.50
2023-02-15T13:53:53.383Z,12.45
2023-02-15T13:56:23.270Z,10.57
2023-02-15T13:58:50.382Z,7.78
2023-02-15T14:01:20.661Z,8.13
2023-02-15T14:04:06.494Z,12.35
2023-02-15T14:06:49.015Z,8.35
2023-02-15T14:09:19.181Z,7.63
2023-02-15T14:11:52.843Z,9.90
2023-02-15T14:14:41.077Z,10.00
2023-02-15T14:17:25.184Z,6.97
2023-02-15T14:20:06.543Z,10.27
2023-02-15T14:22:37.779Z,8.75
2023-02-15T14:25:14.328Z,10.13
2023-02-15T14:27:53.863Z,9.52
2023-02-15T14:30:41.071Z,8.77
2023-02-15T14:33:08.289Z,12.50
2023-02-15T14:35:35.798Z,9.57
2023-02-15T14:38:18.334Z,10.93
2023-02-15T14:41:04.280Z,10.32
2023-02-15T14:43:41.031Z,8.18
2023-02-15T14:46:14.122Z,9.25
2023-02-15T14:48:45.784Z,8.30
2023-02-15T14:51:33.224Z,6.55
2023-02-15T14:54:00.392Z,11.05
2023-02-15T14:56:27.712Z,8.57
2023-02-15T14:58:54.782Z,9.45
2023-02-15T15:01:30.885Z,10.68
2023-02-15T15:04:20.704Z,10.95
2023-02-15T15:06:59.015Z,16.30
2023-02-15T15:09:30.149Z,8.65
2023-02-15T15:12:15.362Z,8.73
2023-02-15T15:14:44.819Z,11.73
2023-02-15T15:17:13.140Z,8.55
2023-02-15T15:19:53.718Z,8.52
2023-02-15T15:22:20.968Z,11.07
2023-02-15T15:24:49.284Z,15.82
2023-02-15T15:27:35.053Z,9.75
2023-02-15T15:30:02.490Z,10.63
2023-02-15T15:32:32.015Z,12.38
2023-02-15T15:35:14.809Z,11.25
2023-02-15T15:37:51.393Z,11.20
2023-02-15T15:40:21.778Z,8.13
2023-02-15T15:43:08.110Z,9.55
2023-02-15T15:45:38.016Z,9.27
2023-02-15T15:48:07.957Z,15.88
2023-02-15T15:50:35.895Z,11.85
2023-02-15T15:53:03.966Z,9.77
2023-02-15T15:55:32.295Z,11.88
2023-02-15T15:58:04.741Z,19.67
2023-02-15T16:00:35.893Z,14.40
2023-02-15T16:03:03.084Z,14.30
2023-02-15T16:05:36.212Z,28.85
2023-02-15T16:08:03.430Z,22.63
2023-02-15T16:10:33.520Z,29.17
2023-02-15T16:13:01.172Z,15.85
2023-02-15T16:15:33.156Z,14.25
2023-02-15T16:18:01.247Z,11.93
2023-02-15T16:20:30.819Z,11.13
2023-02-15T16:23:00.987Z,12.93
2023-02-15T16:25:42.083Z,14.50
2023-02-15T16:28:12.067Z,18.48
2023-02-15T16:30:43.754Z,25.17
2023-02-15T16:33:10.985Z,16.17
2023-02-15T16:35:39.628Z,15.00
2023-02-15T16:38:12.513Z,15.10
2023-02-15T16:40:58.784Z,19.63
2023-02-15T16:43:27.997Z,13.05
2023-02-15T16:46:00.229Z,14.45
2023-02-15T16:48:28.753Z,14.82
2023-02-15T16:50:57.440Z,16.42
2023-02-15T16:53:26.018Z,22.10
2023-02-15T16:55:55.834Z,21.73
2023-02-15T16:58:27.251Z,19.00
2023-02-15T17:00:57.643Z,33.08
2023-02-15T17:03:26.037Z,25.88
2023-02-15T17:05:54.632Z,44.67
2023-02-15T17:08:35.824Z,30.70
2023-02-15T17:11:14.509Z,23.50
2023-02-15T17:14:03.536Z,25.05
2023-02-15T17:16:34.052Z,26.67
2023-02-15T17:19:03.104Z,20.70
2023-02-15T17:21:34.474Z,18.98
2023-02-15T17:24:05.005Z,23.58
2023-02-15T17:26:34.241Z,21.77
2023-02-15T17:29:13.308Z,23.45
2023-02-15T17:31:41.081Z,22.90
2023-02-15T17:34:28.140Z,23.45
2023-02-15T17:36:59.849Z,21.83
2023-02-15T17:39:27.536Z,23.92
2023-02-15T17:41:54.711Z,26.25
2023-02-15T17:44:21.903Z,34.63
2023-02-15T17:46:49.028Z,29.08
2023-02-15T17:49:20.259Z,41.50
2023-02-15T17:51:47.406Z,40.80
2023-02-15T17:54:34.612Z,39.78
2023-02-15T17:57:05.610Z,33.55
2023-02-15T17:59:32.844Z,32.13
2023-02-15T18:02:18.765Z,26.02
2023-02-15T18:05:04.954Z,30.83
2023-02-15T18:07:50.880Z,54.50
2023-02-15T18:10:37.957Z,59.72
2023-02-15T18:13:05.320Z,66.05
2023-02-15T18:15:32.638Z,61.70
2023-02-15T18:17:59.863Z,81.18
2023-02-15T18:20:29.973Z,120.95
2023-02-15T18:22:57.172Z,60.33
2023-02-15T18:25:25.640Z,58.17
2023-02-15T18:27:55.080Z,83.82
2023-02-15T18:30:24.044Z,63.45
2023-02-15T18:32:53.123Z,40.78
2023-02-15T18:35:21.765Z,41.03
2023-02-15T18:37:49.644Z,34.38
2023-02-15T18:40:17.771Z,40.63
2023-02-15T18:42:49.386Z,33.83
2023-02-15T18:45:18.466Z,33.95
2023-02-15T18:47:49.285Z,39.78
2023-02-15T18:50:17.823Z,38.72
2023-02-15T18:52:46.647Z,34.08
2023-02-15T18:55:17.587Z,31.92
2023-02-15T18:57:45.744Z,31.98
2023-02-15T19:00:17.585Z,34.72
2023-02-15T19:02:44.741Z,47.23
2023-02-15T19:05:12.319Z,36.30
2023-02-15T19:07:40.100Z,40.63
2023-02-15T19:10:09.105Z,38.67
2023-02-15T19:12:36.378Z,34.63
2023-02-15T19:15:03.760Z,39.70
2023-02-15T19:17:30.850Z,45.83
2023-02-15T19:19:57.936Z,43.75
2023-02-15T19:22:29.636Z,38.65
2023-02-15T19:24:58.508Z,29.13
2023-02-15T19:27:27.585Z,29.75
2023-02-15T19:29:55.615Z,22.83
2023-02-15T19:32:22.791Z,20.27
2023-02-15T19:34:49.876Z,22.67
2023-02-15T19:37:30.861Z,23.50
2023-02-15T19:39:57.980Z,24.55
2023-02-15T19:42:25.178Z,25.50
2023-02-15T19:44:52.441Z,26.08
2023-02-15T19:47:19.697Z,27.48
2023-02-15T19:49:46.902Z,31.08
2023-02-15T19:52:24.066Z,25.85
2023-02-15T19:54:51.889Z,24.67
2023-02-15T19:57:19.440Z,26.58
2023-02-15T19:59:46.531Z,23.02
2023-02-15T20:02:14.845Z,22.25
2023-02-15T20:04:42.068Z,23.73
2023-02-15T20:07:16.719Z,20.85
2023-02-15T20:09:44.068Z,30.00
2023-02-15T20:12:25.473Z,27.42
2023-02-15T20:14:53.831Z,23.05
2023-02-15T20:17:20.923Z,22.20
2023-02-15T20:19:48.136Z,23.13
2023-02-15T20:22:25.866Z,22.15
2023-02-15T20:24:55.507Z,20.85
2023-02-15T20:27:22.904Z,26.67
2023-02-15T20:29:50.729Z,24.30
2023-02-15T20:32:18.292Z,22.80
2023-02-15T20:34:45.546Z,27.25
2023-02-15T20:37:23.876Z,26.40
2023-02-15T20:39:51.621Z,21.23
2023-02-15T20:42:19.137Z,22.83
2023-02-15T20:44:46.295Z,22.98
2023-02-15T20:47:13.421Z,19.48
2023-02-15T20:49:40.600Z,20.15
2023-02-15T20:52:17.582Z,19.33
2023-02-15T20:54:44.737Z,19.30
2023-02-15T20:57:16.491Z,20.08
2023-02-15T20:59:43.633Z,19.90
2023-02-15T21:02:23.542Z,15.73
2023-02-15T21:04:50.745Z,20.90
2023-02-15T21:07:22.129Z,17.83
2023-02-15T21:09:49.653Z,19.50
2023-02-15T21:12:18.028Z,27.00
2023-02-15T21:14:45.271Z,26.27
2023-02-15T21:17:13.172Z,29.60
2023-02-15T21:19:41.428Z,26.75
2023-02-15T21:22:12.512Z,26.30
2023-02-15T21:24:39.804Z,30.65
2023-02-15T21:27:07.659Z,31.73
2023-02-15T21:29:35.694Z,31.58
2023-02-15T21:32:04.114Z,35.97
2023-02-15T21:34:31.455Z,34.35
2023-02-15T21:36:59.760Z,29.55
2023-02-15T21:39:27.633Z,27.70
2023-02-15T21:42:14.934Z,22.77
2023-02-15T21:45:00.676Z,23.17
2023-02-15T21:47:50.419Z,25.75
2023-02-15T21:50:36.621Z,24.42
2023-02-15T21:53:04.824Z,24.73
2023-02-15T21:55:32.868Z,23.55
2023-02-15T21:58:00.651Z,19.63
2023-02-15T22:00:28.569Z,23.08
2023-02-15T22:02:58.064Z,19.63
2023-02-15T22:05:30.288Z,22.40
2023-02-15T22:07:57.574Z,19.85
2023-02-15T22:10:27.624Z,21.90
2023-02-15T22:12:55.541Z,22.15
2023-02-15T22:15:24.013Z,21.45
2023-02-15T22:17:52.872Z,25.02
2023-02-15T22:20:21.705Z,19.67
2023-02-15T22:22:49.271Z,22.25
2023-02-15T22:25:17.382Z,20.80
2023-02-15T22:27:45.662Z,19.85
2023-02-15T22:30:19.380Z,16.80
2023-02-15T22:32:46.756Z,19.73
2023-02-15T22:35:22.260Z,20.38
2023-02-15T22:37:49.565Z,15.57
2023-02-15T22:40:17.648Z,21.45
2023-02-15T22:42:47.229Z,18.42
2023-02-15T22:45:19.220Z,18.23
2023-02-15T22:47:47.121Z,18.65
2023-02-15T22:50:16.077Z,17.23
2023-02-15T22:52:43.198Z,17.83
2023-02-15T22:55:14.173Z,16.10
2023-02-15T22:57:41.316Z,21.77
2023-02-15T23:00:09.235Z,17.00
2023-02-15T23:02:36.320Z,16.40
2023-02-15T23:05:03.510Z,16.27
2023-02-15T23:07:30.671Z,17.60
2023-02-15T23:09:57.783Z,16.40
2023-02-15T23:12:24.892Z,16.60
2023-02-15T23:14:52.457Z,17.98
2023-02-15T23:17:20.065Z,19.65
2023-02-15T23:19:47.446Z,17.55
2023-02-15T23:22:15.807Z,21.60
2023-02-15T23:24:43.101Z,26.73
2023-02-15T23:27:34.906Z,34.42
2023-02-15T23:30:06.013Z,40.42
2023-02-15T23:32:33.342Z,22.08
2023-02-15T23:35:00.652Z,27.10
2023-02-15T23:37:27.863Z,19.77
2023-02-15T23:40:13.701Z,18.95
2023-02-15T23:42:40.865Z,22.58
2023-02-15T23:45:18.904Z,24.58
2023-02-15T23:48:04.942Z,23.75
2023-02-15T23:50:32.186Z,31.15
2023-02-15T23:52:59.552Z,29.52
2023-02-15T23:55:32.027Z,24.50
2023-02-15T23:57:59.169Z,24.20
